Time,TemperatureF,DewpointF,PressureIn,WindDirection,WindDirectionDegrees,WindSpeedMPH,WindSpeedGustMPH,Humidity,HourlyPrecipIn,Conditions,Clouds,dailyrainin,SoftwareType,DateUTC
2013-02-24 00:01:00,20.0,16.0,-100.00,SW,225,0.0,5.0,85,-99.99,,,-99.99,,2013-02-24 06:01:00,
2013-02-24 00:11:00,20.0,16.0,-100.00,SW,235,0.0,6.0,85,-99.99,,,-99.99,,2013-02-24 06:11:00,
2013-02-24 00:21:00,19.0,16.0,-100.00,SW,230,0.0,6.0,86,-99.99,,,-99.99,,2013-02-24 06:21:00,
2013-02-24 00:32:00,19.0,16.0,-100.00,SW,230,0.0,6.0,86,-99.99,,,-99.99,,2013-02-24 06:32:00,
2013-02-24 00:42:00,19.0,16.0,-100.00,WSW,245,0.0,0.0,86,-99.99,,,-99.99,,2013-02-24 06:42:00,
2013-02-24 00:52:00,19.0,15.0,-100.00,SW,235,1.0,3.0,86,-99.99,,,-99.99,,2013-02-24 06:52:00,
2013-02-24 01:01:00,19.0,15.0,-100.00,SW,235,1.0,3.0,86,-99.99,,,-99.99,,2013-02-24 07:01:00,
2013-02-24 01:12:00,18.0,15.0,-100.00,WSW,245,2.0,4.0,87,-99.99,,,-99.99,,2013-02-24 07:12:00,
2013-02-24 01:21:00,18.0,15.0,-100.00,WSW,250,3.0,5.0,87,-99.99,,,-99.99,,2013-02-24 07:21:00,
2013-02-24 01:32:00,18.0,15.0,-100.00,WSW,250,3.0,5.0,87,-99.99,,,-99.99,,2013-02-24 07:32:00,
2013-02-24 01:42:00,19.0,16.0,-100.00,WSW,240,4.0,6.0,87,-99.99,,,-99.99,,2013-02-24 07:42:00,
2013-02-24 01:52:00,19.0,16.0,-100.00,SW,235,0.0,2.0,88,-99.99,,,-99.99,,2013-02-24 07:52:00,
2013-02-24 02:01:00,19.0,16.0,-100.00,SW,235,0.0,2.0,88,-99.99,,,-99.99,,2013-02-24 08:01:00,
2013-02-24 02:11:00,18.0,15.0,-100.00,SW,220,1.0,4.0,88,-99.99,,,-99.99,,2013-02-24 08:11:00,
2013-02-24 02:22:00,18.0,15.0,-100.00,SW,235,1.0,4.0,89,-99.99,,,-99.99,,2013-02-24 08:22:00,
2013-02-24 02:31:00,18.0,15.0,-100.00,SW,235,1.0,4.0,89,-99.99,,,-99.99,,2013-02-24 08:31:00,
2013-02-24 02:42:00,18.0,15.0,-100.00,West,265,2.0,6.0,89,-99.99,,,-99.99,,2013-02-24 08:42:00,
2013-02-24 02:54:00,18.0,15.0,-100.00,SW,235,3.0,6.0,89,-99.99,,,-99.99,,2013-02-24 08:54:00,
2013-02-24 03:01:00,18.0,15.0,-100.00,SW,235,3.0,6.0,89,-99.99,,,-99.99,,2013-02-24 09:01:00,
2013-02-24 03:11:00,18.0,16.0,-100.00,NW,305,0.0,4.0,90,-99.99,,,-99.99,,2013-02-24 09:11:00,
2013-02-24 03:21:00,17.0,15.0,-100.00,SW,225,2.0,4.0,90,-99.99,,,-99.99,,2013-02-24 09:21:00,
2013-02-24 03:31:00,17.0,15.0,-100.00,SW,225,2.0,4.0,90,-99.99,,,-99.99,,2013-02-24 09:31:00,
2013-02-24 03:42:00,17.0,14.0,-100.00,WSW,250,2.0,6.0,90,-99.99,,,-99.99,,2013-02-24 09:42:00,
2013-02-24 03:52:00,17.0,15.0,-100.00,WSW,250,3.0,6.0,91,-99.99,,,-99.99,,2013-02-24 09:52:00,
2013-02-24 04:01:00,17.0,15.0,-100.00,WSW,250,3.0,6.0,91,-99.99,,,-99.99,,2013-02-24 10:01:00,
2013-02-24 04:11:00,18.0,16.0,-100.00,WNW,285,0.0,4.0,91,-99.99,,,-99.99,,2013-02-24 10:11:00,
2013-02-24 04:21:00,18.0,15.0,-100.00,North,0,0.0,4.0,91,-99.99,,,-99.99,,2013-02-24 10:21:00,
2013-02-24 04:32:00,18.0,15.0,-100.00,North,0,0.0,4.0,91,-99.99,,,-99.99,,2013-02-24 10:32:00,
2013-02-24 04:41:00,18.0,16.0,-100.00,WSW,240,1.0,4.0,92,-99.99,,,-99.99,,2013-02-24 10:41:00,
2013-02-24 04:52:00,17.0,15.0,-100.00,ENE,60,0.0,2.0,92,-99.99,,,-99.99,,2013-02-24 10:52:00,
2013-02-24 05:01:00,17.0,15.0,-100.00,ENE,60,0.0,2.0,92,-99.99,,,-99.99,,2013-02-24 11:01:00,
2013-02-24 05:11:00,17.0,15.0,-100.00,WSW,240,0.0,2.0,92,-99.99,,,-99.99,,2013-02-24 11:11:00,
2013-02-24 05:21:00,17.0,15.0,-100.00,SW,235,0.0,3.0,92,-99.99,,,-99.99,,2013-02-24 11:21:00,
2013-02-24 05:32:00,17.0,15.0,-100.00,SW,235,0.0,3.0,92,-99.99,,,-99.99,,2013-02-24 11:32:00,
2013-02-24 05:41:00,17.0,15.0,-100.00,South,185,0.0,1.0,92,-99.99,,,-99.99,,2013-02-24 11:41:00,
2013-02-24 05:53:00,16.0,14.0,-100.00,SW,225,1.0,2.0,92,-99.99,,,-99.99,,2013-02-24 11:53:00,
2013-02-24 06:01:00,16.0,14.0,-100.00,SW,225,1.0,2.0,92,-99.99,,,-99.99,,2013-02-24 12:01:00,
2013-02-24 06:11:00,15.0,13.0,-100.00,NNW,330,0.0,1.0,93,-99.99,,,-99.99,,2013-02-24 12:11:00,
2013-02-24 06:22:00,15.0,14.0,-100.00,SSW,210,0.0,2.0,93,-99.99,,,-99.99,,2013-02-24 12:22:00,
2013-02-24 06:32:00,15.0,14.0,-100.00,SSW,210,0.0,2.0,93,-99.99,,,-99.99,,2013-02-24 12:32:00,
2013-02-24 06:46:00,15.0,13.0,-100.00,ENE,65,0.0,0.0,93,-99.99,,,-99.99,,2013-02-24 12:46:00,
2013-02-24 06:56:00,15.0,13.0,-100.00,SE,140,0.0,1.0,93,-99.99,,,-99.99,,2013-02-24 12:56:00,
2013-02-24 07:12:00,15.0,13.0,-100.00,SE,140,0.0,1.0,93,-99.99,,,-99.99,,2013-02-24 13:12:00,
2013-02-24 07:26:00,14.0,13.0,-100.00,ENE,60,0.0,1.0,93,-99.99,,,-99.99,,2013-02-24 13:26:00,
2013-02-24 07:34:00,14.0,13.0,-100.00,ENE,60,0.0,1.0,93,-99.99,,,-99.99,,2013-02-24 13:34:00,
2013-02-24 07:44:00,14.0,13.0,-100.00,ENE,60,0.0,0.0,93,-99.99,,,-99.99,,2013-02-24 13:44:00,
2013-02-24 07:55:00,15.0,14.0,-100.00,NE,55,0.0,0.0,94,-99.99,,,-99.99,,2013-02-24 13:55:00,
2013-02-24 08:04:00,15.0,14.0,-100.00,NE,55,0.0,0.0,94,-99.99,,,-99.99,,2013-02-24 14:04:00,
2013-02-24 08:13:00,16.0,15.0,-100.00,NNE,25,2.0,4.0,94,-99.99,,,-99.99,,2013-02-24 14:13:00,
2013-02-24 08:24:00,19.0,18.0,-100.00,SSW,200,0.0,1.0,94,-99.99,,,-99.99,,2013-02-24 14:24:00,
2013-02-24 08:34:00,19.0,18.0,-100.00,SSW,200,0.0,1.0,94,-99.99,,,-99.99,,2013-02-24 14:34:00,
2013-02-24 08:44:00,20.0,19.0,-100.00,SSE,165,0.0,2.0,94,-99.99,,,-99.99,,2013-02-24 14:44:00,
2013-02-24 08:54:00,23.0,22.0,-100.00,SW,225,1.0,4.0,94,-99.99,,,-99.99,,2013-02-24 14:54:00,
2013-02-24 09:03:00,23.0,22.0,-100.00,SW,225,1.0,4.0,94,-99.99,,,-99.99,,2013-02-24 15:03:00,
2013-02-24 09:13:00,24.0,23.0,-100.00,West,260,1.0,5.0,94,-99.99,,,-99.99,,2013-02-24 15:13:00,
2013-02-24 09:23:00,26.0,24.0,-100.00,SW,220,1.0,4.0,93,-99.99,,,-99.99,,2013-02-24 15:23:00,
2013-02-24 09:42:00,26.0,24.0,-100.00,SSE,155,2.0,4.0,91,-99.99,,,-99.99,,2013-02-24 15:42:00,
2013-02-24 09:53:00,27.0,24.0,-100.00,SSW,195,2.0,4.0,87,-99.99,,,-99.99,,2013-02-24 15:53:00,
2013-02-24 10:01:00,27.0,24.0,-100.00,SSW,195,2.0,4.0,87,-99.99,,,-99.99,,2013-02-24 16:01:00,
2013-02-24 10:11:00,28.0,23.0,-100.00,South,175,2.0,5.0,81,-99.99,,,-99.99,,2013-02-24 16:11:00,
2013-02-24 10:21:00,31.0,24.0,-100.00,East,80,0.0,2.0,75,-99.99,,,-99.99,,2013-02-24 16:21:00,
2013-02-24 10:32:00,31.0,24.0,-100.00,East,80,0.0,2.0,75,-99.99,,,-99.99,,2013-02-24 16:32:00,
2013-02-24 10:42:00,33.0,24.0,-100.00,South,190,2.0,4.0,70,-99.99,,,-99.99,,2013-02-24 16:42:00,
2013-02-24 10:52:00,33.0,23.0,-100.00,South,180,1.0,4.0,65,-99.99,,,-99.99,,2013-02-24 16:52:00,
2013-02-24 11:01:00,33.0,23.0,-100.00,South,180,1.0,4.0,65,-99.99,,,-99.99,,2013-02-24 17:01:00,
2013-02-24 11:11:00,34.0,21.0,-100.00,South,175,4.0,5.0,59,-99.99,,,-99.99,,2013-02-24 17:11:00,
2013-02-24 11:21:00,34.0,20.0,-100.00,South,185,4.0,5.0,57,-99.99,,,-99.99,,2013-02-24 17:21:00,
2013-02-24 11:32:00,34.0,20.0,-100.00,South,185,4.0,5.0,57,-99.99,,,-99.99,,2013-02-24 17:32:00,
2013-02-24 11:42:00,36.0,21.0,-100.00,SSW,205,3.0,6.0,54,-99.99,,,-99.99,,2013-02-24 17:42:00,
2013-02-24 11:53:00,36.0,20.0,-100.00,South,190,5.0,8.0,52,-99.99,,,-99.99,,2013-02-24 17:53:00,
2013-02-24 12:01:00,36.0,20.0,-100.00,South,190,5.0,8.0,52,-99.99,,,-99.99,,2013-02-24 18:01:00,
2013-02-24 12:11:00,37.0,21.0,-100.00,SSW,195,2.0,7.0,52,-99.99,,,-99.99,,2013-02-24 18:11:00,
2013-02-24 12:22:00,38.0,21.0,-100.00,SSW,205,3.0,5.0,50,-99.99,,,-99.99,,2013-02-24 18:22:00,
2013-02-24 12:32:00,38.0,21.0,-100.00,SSW,205,3.0,5.0,50,-99.99,,,-99.99,,2013-02-24 18:32:00,
2013-02-24 12:42:00,38.0,21.0,-100.00,SW,225,3.0,6.0,49,-99.99,,,-99.99,,2013-02-24 18:42:00,
2013-02-24 12:52:00,39.0,20.0,-100.00,South,190,5.0,7.0,47,-99.99,,,-99.99,,2013-02-24 18:52:00,
2013-02-24 13:01:00,39.0,20.0,-100.00,South,190,5.0,7.0,47,-99.99,,,-99.99,,2013-02-24 19:01:00,
2013-02-24 13:11:00,39.0,21.0,-100.00,SSE,165,1.0,6.0,48,-99.99,,,-99.99,,2013-02-24 19:11:00,
2013-02-24 13:22:00,39.0,21.0,-100.00,South,175,4.0,6.0,48,-99.99,,,-99.99,,2013-02-24 19:22:00,
2013-02-24 13:32:00,39.0,21.0,-100.00,South,175,4.0,6.0,48,-99.99,,,-99.99,,2013-02-24 19:32:00,
2013-02-24 13:42:00,40.0,23.0,-100.00,South,180,1.0,4.0,49,-99.99,,,-99.99,,2013-02-24 19:42:00,
2013-02-24 13:52:00,40.0,22.0,-100.00,SSW,205,3.0,6.0,49,-99.99,,,-99.99,,2013-02-24 19:52:00,
2013-02-24 14:02:00,40.0,22.0,-100.00,SSW,205,3.0,6.0,49,-99.99,,,-99.99,,2013-02-24 20:02:00,
2013-02-24 14:11:00,40.0,21.0,-100.00,South,185,3.0,8.0,47,-99.99,,,-99.99,,2013-02-24 20:11:00,
2013-02-24 14:21:00,40.0,22.0,-100.00,SW,220,3.0,7.0,49,-99.99,,,-99.99,,2013-02-24 20:21:00,
2013-02-24 14:32:00,40.0,22.0,-100.00,SW,220,3.0,7.0,49,-99.99,,,-99.99,,2013-02-24 20:32:00,
2013-02-24 14:42:00,40.0,22.0,-100.00,South,185,4.0,9.0,48,-99.99,,,-99.99,,2013-02-24 20:42:00,
2013-02-24 14:52:00,40.0,22.0,-100.00,South,185,4.0,8.0,48,-99.99,,,-99.99,,2013-02-24 20:52:00,
2013-02-24 15:01:00,40.0,22.0,-100.00,South,185,4.0,8.0,48,-99.99,,,-99.99,,2013-02-24 21:01:00,
2013-02-24 15:11:00,39.0,21.0,-100.00,SSE,160,4.0,9.0,48,-99.99,,,-99.99,,2013-02-24 21:11:00,
2013-02-24 15:21:00,39.0,21.0,-100.00,South,190,5.0,9.0,49,-99.99,,,-99.99,,2013-02-24 21:21:00,
2013-02-24 15:32:00,39.0,21.0,-100.00,South,190,5.0,9.0,49,-99.99,,,-99.99,,2013-02-24 21:32:00,
2013-02-24 15:42:00,38.0,22.0,-100.00,SSE,165,3.0,9.0,51,-99.99,,,-99.99,,2013-02-24 21:42:00,
2013-02-24 15:52:00,38.0,22.0,-100.00,SW,220,3.0,9.0,52,-99.99,,,-99.99,,2013-02-24 21:52:00,
2013-02-24 16:01:00,38.0,22.0,-100.00,SW,220,3.0,9.0,52,-99.99,,,-99.99,,2013-02-24 22:01:00,
2013-02-24 16:11:00,39.0,23.0,-100.00,South,190,4.0,8.0,52,-99.99,,,-99.99,,2013-02-24 22:11:00,
2013-02-24 16:21:00,38.0,22.0,-100.00,SSE,165,4.0,10.0,52,-99.99,,,-99.99,,2013-02-24 22:21:00,
2013-02-24 16:31:00,38.0,22.0,-100.00,SSE,165,4.0,10.0,52,-99.99,,,-99.99,,2013-02-24 22:31:00,
2013-02-24 16:41:00,38.0,23.0,-100.00,SSW,195,4.0,6.0,53,-99.99,,,-99.99,,2013-02-24 22:41:00,
2013-02-24 16:52:00,38.0,23.0,-100.00,SE,140,4.0,5.0,54,-99.99,,,-99.99,,2013-02-24 22:52:00,
2013-02-24 17:02:00,38.0,23.0,-100.00,SE,140,4.0,5.0,54,-99.99,,,-99.99,,2013-02-24 23:02:00,
2013-02-24 17:11:00,38.0,23.0,-100.00,SSW,205,3.0,6.0,54,-99.99,,,-99.99,,2013-02-24 23:11:00,
2013-02-24 17:21:00,37.0,23.0,-100.00,SW,220,2.0,7.0,55,-99.99,,,-99.99,,2013-02-24 23:21:00,
2013-02-24 17:32:00,37.0,23.0,-100.00,SW,220,2.0,7.0,55,-99.99,,,-99.99,,2013-02-24 23:32:00,
2013-02-24 17:42:00,37.0,23.0,-100.00,SSW,195,4.0,5.0,56,-99.99,,,-99.99,,2013-02-24 23:42:00,
2013-02-24 17:52:00,36.0,23.0,-100.00,South,170,3.0,5.0,57,-99.99,,,-99.99,,2013-02-24 23:52:00,
2013-02-24 18:01:00,36.0,23.0,-100.00,South,170,3.0,5.0,57,-99.99,,,-99.99,,2013-02-25 00:01:00,
2013-02-24 18:11:00,36.0,23.0,-100.00,SSE,160,0.0,4.0,58,-99.99,,,-99.99,,2013-02-25 00:11:00,
2013-02-24 18:21:00,35.0,23.0,-100.00,South,175,0.0,0.0,60,-99.99,,,-99.99,,2013-02-25 00:21:00,
2013-02-24 18:32:00,35.0,23.0,-100.00,South,175,0.0,0.0,60,-99.99,,,-99.99,,2013-02-25 00:32:00,
2013-02-24 18:42:00,35.0,23.0,-100.00,SSE,150,0.0,1.0,61,-99.99,,,-99.99,,2013-02-25 00:42:00,
2013-02-24 18:52:00,34.0,23.0,-100.00,ESE,120,0.0,0.0,62,-99.99,,,-99.99,,2013-02-25 00:52:00,
2013-02-24 19:01:00,34.0,23.0,-100.00,ESE,120,0.0,0.0,62,-99.99,,,-99.99,,2013-02-25 01:01:00,
2013-02-24 19:11:00,33.0,23.0,-100.00,East,85,1.0,4.0,64,-99.99,,,-99.99,,2013-02-25 01:11:00,
2013-02-24 19:21:00,33.0,22.0,-100.00,SSE,150,0.0,0.0,65,-99.99,,,-99.99,,2013-02-25 01:21:00,
2013-02-24 19:31:00,33.0,22.0,-100.00,SSE,150,0.0,0.0,65,-99.99,,,-99.99,,2013-02-25 01:31:00,
2013-02-24 19:42:00,33.0,22.0,-100.00,SSE,150,0.0,0.0,65,-99.99,,,-99.99,,2013-02-25 01:42:00,
2013-02-24 19:52:00,32.0,22.0,-100.00,East,90,1.0,4.0,68,-99.99,,,-99.99,,2013-02-25 01:52:00,
2013-02-24 20:01:00,32.0,22.0,-100.00,East,90,1.0,4.0,68,-99.99,,,-99.99,,2013-02-25 02:01:00,
2013-02-24 20:11:00,32.0,24.0,-100.00,ENE,75,3.0,4.0,70,-99.99,,,-99.99,,2013-02-25 02:11:00,
2013-02-24 20:21:00,32.0,23.0,-100.00,SE,125,1.0,3.0,71,-99.99,,,-99.99,,2013-02-25 02:21:00,
2013-02-24 20:32:00,32.0,23.0,-100.00,SE,125,1.0,3.0,71,-99.99,,,-99.99,,2013-02-25 02:32:00,
2013-02-24 20:41:00,31.0,23.0,-100.00,ENE,65,1.0,3.0,73,-99.99,,,-99.99,,2013-02-25 02:41:00,
2013-02-24 20:52:00,30.0,23.0,-100.00,ENE,60,2.0,4.0,75,-99.99,,,-99.99,,2013-02-25 02:52:00,
2013-02-24 21:01:00,30.0,23.0,-100.00,ENE,60,2.0,4.0,75,-99.99,,,-99.99,,2013-02-25 03:01:00,
2013-02-24 21:11:00,30.0,24.0,-100.00,East,85,1.0,4.0,77,-99.99,,,-99.99,,2013-02-25 03:11:00,
2013-02-24 21:21:00,30.0,24.0,-100.00,ENE,70,1.0,4.0,79,-99.99,,,-99.99,,2013-02-25 03:21:00,
2013-02-24 21:31:00,30.0,24.0,-100.00,ENE,70,1.0,4.0,79,-99.99,,,-99.99,,2013-02-25 03:31:00,
2013-02-24 21:42:00,29.0,24.0,-100.00,East,85,3.0,4.0,81,-99.99,,,-99.99,,2013-02-25 03:42:00,
2013-02-24 21:52:00,30.0,25.0,-100.00,East,85,3.0,4.0,82,-99.99,,,-99.99,,2013-02-25 03:52:00,
2013-02-24 22:01:00,30.0,25.0,-100.00,East,85,3.0,4.0,82,-99.99,,,-99.99,,2013-02-25 04:01:00,
2013-02-24 22:11:00,29.0,25.0,-100.00,ENE,70,3.0,5.0,83,-99.99,,,-99.99,,2013-02-25 04:11:00,
2013-02-24 22:21:00,29.0,25.0,-100.00,East,90,2.0,4.0,84,-99.99,,,-99.99,,2013-02-25 04:21:00,
2013-02-24 22:32:00,29.0,25.0,-100.00,East,90,2.0,4.0,84,-99.99,,,-99.99,,2013-02-25 04:32:00,
2013-02-24 22:42:00,29.0,25.0,-100.00,East,85,2.0,4.0,85,-99.99,,,-99.99,,2013-02-25 04:42:00,
2013-02-24 22:52:00,29.0,25.0,-100.00,East,85,2.0,4.0,85,-99.99,,,-99.99,,2013-02-25 04:52:00,
2013-02-24 23:11:00,27.0,24.0,-100.00,East,90,0.0,1.0,87,-99.99,,,-99.99,,2013-02-25 05:11:00,
2013-02-24 23:22:00,27.0,24.0,-100.00,East,80,0.0,4.0,88,-99.99,,,-99.99,,2013-02-25 05:22:00,
2013-02-24 23:32:00,27.0,24.0,-100.00,East,80,0.0,4.0,88,-99.99,,,-99.99,,2013-02-25 05:32:00,
2013-02-24 23:42:00,27.0,24.0,-100.00,ENE,65,0.0,4.0,88,-99.99,,,-99.99,,2013-02-25 05:42:00,
2013-02-24 23:52:00,27.0,24.0,-100.00,East,80,1.0,4.0,89,-99.99,,,-99.99,,2013-02-25 05:52:00,